sensor_id;sensor_type;location;lat;lon;timestamp;pressure;altitude;pressure_sealevel;temperature;humidity
16355;BME280;8287;51.644;8.494;2023-09-08T00:02:23;100665.00;;;19.90;83.23
16355;BME280;8287;51.644;8.494;2023-09-08T00:04:49;100671.16;;;19.91;83.33
16355;BME280;8287;51.644;8.494;2023-09-08T00:07:16;100676.59;;;19.94;82.84
16355;BME280;8287;51.644;8.494;2023-09-08T00:09:42;100671.09;;;19.87;83.24
16355;BME280;8287;51.644;8.494;2023-09-08T00:12:10;100665.72;;;19.87;82.77
16355;BME280;8287;51.644;8.494;2023-09-08T00:14:37;100679.16;;;19.87;83.05
16355;BME280;8287;51.644;8.494;2023-09-08T00:17:04;100668.63;;;19.79;84.15
16355;BME280;8287;51.644;8.494;2023-09-08T00:19:30;100670.84;;;19.73;84.76
16355;BME280;8287;51.644;8.494;2023-09-08T00:21:57;100671.97;;;19.72;85.20
16355;BME280;8287;51.644;8.494;2023-09-08T00:24:24;100665.53;;;19.77;84.96
16355;BME280;8287;51.644;8.494;2023-09-08T00:26:50;100669.41;;;19.79;85.15
16355;BME280;8287;51.644;8.494;2023-09-08T00:29:18;100658.72;;;19.83;84.01
16355;BME280;8287;51.644;8.494;2023-09-08T00:31:45;100650.09;;;19.74;84.82
16355;BME280;8287;51.644;8.494;2023-09-08T00:34:11;100651.66;;;19.75;85.12
16355;BME280;8287;51.644;8.494;2023-09-08T00:36:38;100644.72;;;19.74;85.03
16355;BME280;8287;51.644;8.494;2023-09-08T00:39:04;100653.91;;;19.73;85.69
16355;BME280;8287;51.644;8.494;2023-09-08T00:41:31;100656.19;;;19.71;86.05
16355;BME280;8287;51.644;8.494;2023-09-08T00:43:58;100655.34;;;19.67;86.76
16355;BME280;8287;51.644;8.494;2023-09-08T00:46:26;100658.75;;;19.64;87.17
16355;BME280;8287;51.644;8.494;2023-09-08T00:48:53;100659.19;;;19.66;87.21
16355;BME280;8287;51.644;8.494;2023-09-08T00:51:20;100660.34;;;19.68;87.00
16355;BME280;8287;51.644;8.494;2023-09-08T00:53:47;100660.16;;;19.77;86.30
16355;BME280;8287;51.644;8.494;2023-09-08T00:56:13;100650.94;;;19.78;85.77
16355;BME280;8287;51.644;8.494;2023-09-08T00:58:40;100654.03;;;19.80;85.48
16355;BME280;8287;51.644;8.494;2023-09-08T01:01:07;100656.03;;;19.83;85.26
16355;BME280;8287;51.644;8.494;2023-09-08T01:03:35;100650.53;;;19.76;85.91
16355;BME280;8287;51.644;8.494;2023-09-08T01:06:02;100651.75;;;19.59;86.97
16355;BME280;8287;51.644;8.494;2023-09-08T01:08:30;100647.03;;;19.53;87.51
16355;BME280;8287;51.644;8.494;2023-09-08T01:10:57;100643.06;;;19.47;87.58
16355;BME280;8287;51.644;8.494;2023-09-08T01:13:23;100645.66;;;19.43;88.32
16355;BME280;8287;51.644;8.494;2023-09-08T01:15:51;100650.28;;;19.43;88.77
16355;BME280;8287;51.644;8.494;2023-09-08T01:18:17;100644.03;;;19.39;88.81
16355;BME280;8287;51.644;8.494;2023-09-08T01:21:03;100651.91;;;19.47;88.44
16355;BME280;8287;51.644;8.494;2023-09-08T01:23:42;100641.91;;;19.48;88.79
16355;BME280;8287;51.644;8.494;2023-09-08T01:26:20;100654.66;;;19.51;88.66
16355;BME280;8287;51.644;8.494;2023-09-08T01:28:49;100646.19;;;19.49;88.64
16355;BME280;8287;51.644;8.494;2023-09-08T01:31:16;100647.75;;;19.50;87.75
16355;BME280;8287;51.644;8.494;2023-09-08T01:33:44;100652.75;;;19.51;88.29
16355;BME280;8287;51.644;8.494;2023-09-08T01:36:11;100650.50;;;19.53;87.71
16355;BME280;8287;51.644;8.494;2023-09-08T01:38:39;100647.84;;;19.57;87.70
16355;BME280;8287;51.644;8.494;2023-09-08T01:41:05;100649.06;;;19.59;87.39
16355;BME280;8287;51.644;8.494;2023-09-08T01:43:34;100641.06;;;19.63;87.01
16355;BME280;8287;51.644;8.494;2023-09-08T01:46:00;100648.25;;;19.78;85.79
16355;BME280;8287;51.644;8.494;2023-09-08T01:48:27;100647.97;;;19.83;85.17
16355;BME280;8287;51.644;8.494;2023-09-08T01:50:53;100656.59;;;19.92;84.13
16355;BME280;8287;51.644;8.494;2023-09-08T01:53:20;100650.88;;;19.97;83.51
16355;BME280;8287;51.644;8.494;2023-09-08T01:55:46;100661.25;;;19.95;82.77
16355;BME280;8287;51.644;8.494;2023-09-08T01:58:13;100658.84;;;19.90;83.20
16355;BME280;8287;51.644;8.494;2023-09-08T02:00:41;100647.19;;;19.82;83.83
16355;BME280;8287;51.644;8.494;2023-09-08T02:03:07;100652.16;;;19.61;85.38
16355;BME280;8287;51.644;8.494;2023-09-08T02:05:34;100650.13;;;19.55;85.43
16355;BME280;8287;51.644;8.494;2023-09-08T02:08:04;100653.59;;;19.55;85.31
16355;BME280;8287;51.644;8.494;2023-09-08T02:10:31;100639.66;;;19.31;85.78
16355;BME280;8287;51.644;8.494;2023-09-08T02:12:57;100648.84;;;19.11;87.25
16355;BME280;8287;51.644;8.494;2023-09-08T02:15:24;100634.59;;;19.10;87.56
16355;BME280;8287;51.644;8.494;2023-09-08T02:17:53;100631.09;;;19.06;87.47
16355;BME280;8287;51.644;8.494;2023-09-08T02:20:20;100638.44;;;19.09;87.78
16355;BME280;8287;51.644;8.494;2023-09-08T02:22:46;100638.22;;;19.18;87.19
16355;BME280;8287;51.644;8.494;2023-09-08T02:25:15;100645.66;;;19.43;85.87
16355;BME280;8287;51.644;8.494;2023-09-08T02:27:42;100645.13;;;19.53;84.80
16355;BME280;8287;51.644;8.494;2023-09-08T02:30:09;100640.28;;;19.43;84.96
16355;BME280;8287;51.644;8.494;2023-09-08T02:32:36;100639.91;;;19.64;83.47
16355;BME280;8287;51.644;8.494;2023-09-08T02:35:04;100645.28;;;19.83;81.58
16355;BME280;8287;51.644;8.494;2023-09-08T02:37:31;100646.59;;;19.92;80.65
16355;BME280;8287;51.644;8.494;2023-09-08T02:39:58;100643.59;;;19.75;82.19
16355;BME280;8287;51.644;8.494;2023-09-08T02:42:24;100657.22;;;19.44;83.91
16355;BME280;8287;51.644;8.494;2023-09-08T02:44:51;100653.03;;;19.27;85.13
16355;BME280;8287;51.644;8.494;2023-09-08T02:47:18;100649.50;;;19.23;85.38
16355;BME280;8287;51.644;8.494;2023-09-08T02:49:44;100659.47;;;19.23;85.49
16355;BME280;8287;51.644;8.494;2023-09-08T02:52:12;100646.56;;;19.13;86.21
16355;BME280;8287;51.644;8.494;2023-09-08T02:54:39;100651.84;;;19.25;85.26
16355;BME280;8287;51.644;8.494;2023-09-08T02:57:06;100650.13;;;19.36;83.78
16355;BME280;8287;51.644;8.494;2023-09-08T02:59:32;100655.59;;;19.39;83.85
16355;BME280;8287;51.644;8.494;2023-09-08T03:01:59;100652.56;;;19.41;82.96
16355;BME280;8287;51.644;8.494;2023-09-08T03:04:26;100651.69;;;19.37;83.01
16355;BME280;8287;51.644;8.494;2023-09-08T03:06:53;100644.63;;;19.29;83.65
16355;BME280;8287;51.644;8.494;2023-09-08T03:09:21;100641.59;;;19.15;84.13
16355;BME280;8287;51.644;8.494;2023-09-08T03:11:47;100650.31;;;19.08;85.50
16355;BME280;8287;51.644;8.494;2023-09-08T03:14:14;100643.03;;;19.09;85.59
16355;BME280;8287;51.644;8.494;2023-09-08T03:16:40;100646.47;;;19.09;85.56
16355;BME280;8287;51.644;8.494;2023-09-08T03:19:07;100638.41;;;18.90;86.15
16355;BME280;8287;51.644;8.494;2023-09-08T03:21:33;100645.25;;;18.88;87.00
16355;BME280;8287;51.644;8.494;2023-09-08T03:24:00;100650.38;;;18.77;87.42
16355;BME280;8287;51.644;8.494;2023-09-08T03:26:28;100640.44;;;18.78;87.75
16355;BME280;8287;51.644;8.494;2023-09-08T03:28:55;100630.34;;;18.71;87.83
16355;BME280;8287;51.644;8.494;2023-09-08T03:31:21;100627.06;;;18.62;88.82
16355;BME280;8287;51.644;8.494;2023-09-08T03:33:48;100629.25;;;18.57;88.56
16355;BME280;8287;51.644;8.494;2023-09-08T03:36:15;100626.94;;;18.40;89.91
16355;BME280;8287;51.644;8.494;2023-09-08T03:38:41;100626.66;;;18.45;90.31
16355;BME280;8287;51.644;8.494;2023-09-08T03:41:08;100623.97;;;18.45;90.06
16355;BME280;8287;51.644;8.494;2023-09-08T03:43:37;100618.34;;;18.50;89.58
16355;BME280;8287;51.644;8.494;2023-09-08T03:46:04;100622.00;;;18.42;90.40
16355;BME280;8287;51.644;8.494;2023-09-08T03:48:30;100616.47;;;18.35;90.41
16355;BME280;8287;51.644;8.494;2023-09-08T03:50:57;100615.91;;;18.45;90.50
16355;BME280;8287;51.644;8.494;2023-09-08T03:53:24;100613.94;;;18.42;90.14
16355;BME280;8287;51.644;8.494;2023-09-08T03:55:51;100609.25;;;18.54;89.55
16355;BME280;8287;51.644;8.494;2023-09-08T03:58:17;100617.97;;;18.51;89.44
16355;BME280;8287;51.644;8.494;2023-09-08T04:00:45;100615.97;;;18.64;88.74
16355;BME280;8287;51.644;8.494;2023-09-08T04:03:12;100623.41;;;18.70;88.70
16355;BME280;8287;51.644;8.494;2023-09-08T04:05:39;100616.69;;;18.80;88.22
16355;BME280;8287;51.644;8.494;2023-09-08T04:08:05;100625.97;;;18.82;87.69
16355;BME280;8287;51.644;8.494;2023-09-08T04:10:32;100615.56;;;18.81;87.99
16355;BME280;8287;51.644;8.494;2023-09-08T04:12:58;100624.91;;;18.87;87.52
16355;BME280;8287;51.644;8.494;2023-09-08T04:15:25;100627.25;;;18.88;87.83
16355;BME280;8287;51.644;8.494;2023-09-08T04:17:53;100619.53;;;18.87;87.55
16355;BME280;8287;51.644;8.494;2023-09-08T04:20:19;100626.38;;;18.84;87.59
16355;BME280;8287;51.644;8.494;2023-09-08T04:22:46;100615.16;;;18.79;88.00
16355;BME280;8287;51.644;8.494;2023-09-08T04:25:13;100624.19;;;18.90;88.09
16355;BME280;8287;51.644;8.494;2023-09-08T04:27:39;100622.88;;;18.99;87.07
16355;BME280;8287;51.644;8.494;2023-09-08T04:30:07;100621.41;;;19.02;87.04
16355;BME280;8287;51.644;8.494;2023-09-08T04:32:34;100627.19;;;19.04;86.63
16355;BME280;8287;51.644;8.494;2023-09-08T04:35:04;100620.69;;;19.05;86.50
16355;BME280;8287;51.644;8.494;2023-09-08T04:37:31;100624.34;;;18.97;86.82
16355;BME280;8287;51.644;8.494;2023-09-08T04:39:58;100625.97;;;19.01;86.66
16355;BME280;8287;51.644;8.494;2023-09-08T04:42:24;100621.75;;;19.00;86.80
16355;BME280;8287;51.644;8.494;2023-09-08T04:44:51;100622.22;;;19.06;86.26
16355;BME280;8287;51.644;8.494;2023-09-08T04:47:17;100620.59;;;19.01;86.27
16355;BME280;8287;51.644;8.494;2023-09-08T04:49:45;100616.19;;;19.09;86.21
16355;BME280;8287;51.644;8.494;2023-09-08T04:52:12;100615.88;;;19.14;85.73
16355;BME280;8287;51.644;8.494;2023-09-08T04:54:40;100621.09;;;19.07;85.57
16355;BME280;8287;51.644;8.494;2023-09-08T04:57:06;100625.63;;;19.03;86.12
16355;BME280;8287;51.644;8.494;2023-09-08T04:59:33;100621.41;;;19.02;86.08
16355;BME280;8287;51.644;8.494;2023-09-08T05:02:02;100625.63;;;19.03;86.33
16355;BME280;8287;51.644;8.494;2023-09-08T05:04:28;100628.81;;;19.08;85.79
16355;BME280;8287;51.644;8.494;2023-09-08T05:06:55;100626.63;;;19.14;85.52
16355;BME280;8287;51.644;8.494;2023-09-08T05:09:23;100619.69;;;19.13;85.56
16355;BME280;8287;51.644;8.494;2023-09-08T05:11:50;100629.22;;;19.10;85.63
16355;BME280;8287;51.644;8.494;2023-09-08T05:14:16;100630.28;;;19.06;86.42
16355;BME280;8287;51.644;8.494;2023-09-08T05:16:43;100638.50;;;19.13;86.26
16355;BME280;8287;51.644;8.494;2023-09-08T05:19:12;100640.44;;;19.12;86.68
16355;BME280;8287;51.644;8.494;2023-09-08T05:21:39;100630.28;;;19.06;86.61
16355;BME280;8287;51.644;8.494;2023-09-08T05:24:06;100632.56;;;19.04;87.07
16355;BME280;8287;51.644;8.494;2023-09-08T05:26:36;100639.50;;;19.05;87.52
16355;BME280;8287;51.644;8.494;2023-09-08T05:29:03;100635.09;;;18.97;87.52
16355;BME280;8287;51.644;8.494;2023-09-08T05:31:30;100634.84;;;19.02;87.48
16355;BME280;8287;51.644;8.494;2023-09-08T05:33:57;100638.44;;;19.09;87.01
16355;BME280;8287;51.644;8.494;2023-09-08T05:36:23;100640.31;;;19.24;86.27
16355;BME280;8287;51.644;8.494;2023-09-08T05:38:50;100638.53;;;19.32;85.92
16355;BME280;8287;51.644;8.494;2023-09-08T05:41:16;100635.72;;;19.44;85.06
16355;BME280;8287;51.644;8.494;2023-09-08T05:43:44;100648.22;;;19.55;84.85
16355;BME280;8287;51.644;8.494;2023-09-08T05:46:11;100647.84;;;19.57;84.72
16355;BME280;8287;51.644;8.494;2023-09-08T05:48:39;100642.84;;;19.55;85.04
16355;BME280;8287;51.644;8.494;2023-09-08T05:51:05;100646.78;;;19.61;85.27
16355;BME280;8287;51.644;8.494;2023-09-08T05:53:32;100639.03;;;19.56;85.30
16355;BME280;8287;51.644;8.494;2023-09-08T05:56:00;100643.59;;;19.56;85.49
16355;BME280;8287;51.644;8.494;2023-09-08T05:58:27;100643.91;;;19.51;85.90
16355;BME280;8287;51.644;8.494;2023-09-08T06:00:56;100641.00;;;19.59;86.02
16355;BME280;8287;51.644;8.494;2023-09-08T06:03:22;100636.94;;;19.69;86.02
16355;BME280;8287;51.644;8.494;2023-09-08T06:05:49;100644.56;;;19.86;85.29
16355;BME280;8287;51.644;8.494;2023-09-08T06:08:15;100636.50;;;19.86;85.04
16355;BME280;8287;51.644;8.494;2023-09-08T06:10:42;100634.63;;;19.90;84.77
16355;BME280;8287;51.644;8.494;2023-09-08T06:13:08;100632.13;;;20.00;83.61
16355;BME280;8287;51.644;8.494;2023-09-08T06:15:35;100624.09;;;20.04;83.75
16355;BME280;8287;51.644;8.494;2023-09-08T06:18:04;100625.69;;;20.05;83.34
16355;BME280;8287;51.644;8.494;2023-09-08T06:20:30;100624.66;;;20.13;84.01
16355;BME280;8287;51.644;8.494;2023-09-08T06:22:57;100620.72;;;20.29;83.85
16355;BME280;8287;51.644;8.494;2023-09-08T06:25:24;100625.94;;;20.44;83.73
16355;BME280;8287;51.644;8.494;2023-09-08T06:27:50;100632.53;;;20.47;83.70
16355;BME280;8287;51.644;8.494;2023-09-08T06:30:17;100629.94;;;20.54;82.93
16355;BME280;8287;51.644;8.494;2023-09-08T06:32:44;100624.69;;;20.64;83.27
16355;BME280;8287;51.644;8.494;2023-09-08T06:35:12;100628.75;;;20.77;82.90
16355;BME280;8287;51.644;8.494;2023-09-08T06:37:39;100627.81;;;20.92;82.75
16355;BME280;8287;51.644;8.494;2023-09-08T06:40:06;100626.03;;;21.03;82.35
16355;BME280;8287;51.644;8.494;2023-09-08T06:42:33;100617.66;;;21.12;81.29
16355;BME280;8287;51.644;8.494;2023-09-08T06:45:00;100623.19;;;21.22;81.44
16355;BME280;8287;51.644;8.494;2023-09-08T06:47:26;100620.66;;;21.36;80.88
16355;BME280;8287;51.644;8.494;2023-09-08T06:49:53;100628.13;;;21.50;81.06
16355;BME280;8287;51.644;8.494;2023-09-08T06:52:21;100619.31;;;21.56;81.30
16355;BME280;8287;51.644;8.494;2023-09-08T06:54:47;100625.25;;;21.69;80.82
16355;BME280;8287;51.644;8.494;2023-09-08T06:57:17;100616.94;;;21.84;80.43
16355;BME280;8287;51.644;8.494;2023-09-08T06:59:44;100612.38;;;21.92;79.68
16355;BME280;8287;51.644;8.494;2023-09-08T07:02:10;100611.31;;;22.03;79.81
16355;BME280;8287;51.644;8.494;2023-09-08T07:04:37;100607.19;;;22.20;80.22
16355;BME280;8287;51.644;8.494;2023-09-08T07:07:04;100611.91;;;22.30;79.69
16355;BME280;8287;51.644;8.494;2023-09-08T07:09:33;100620.47;;;22.39;79.09
16355;BME280;8287;51.644;8.494;2023-09-08T07:12:00;100610.91;;;22.52;77.01
16355;BME280;8287;51.644;8.494;2023-09-08T07:14:27;100619.13;;;22.66;76.71
16355;BME280;8287;51.644;8.494;2023-09-08T07:16:54;100616.88;;;22.78;76.70
16355;BME280;8287;51.644;8.494;2023-09-08T07:19:20;100619.66;;;22.96;76.18
16355;BME280;8287;51.644;8.494;2023-09-08T07:21:47;100626.28;;;23.09;75.87
16355;BME280;8287;51.644;8.494;2023-09-08T07:24:13;100621.75;;;23.27;75.76
16355;BME280;8287;51.644;8.494;2023-09-08T07:26:41;100622.53;;;23.34;75.06
16355;BME280;8287;51.644;8.494;2023-09-08T07:29:08;100624.88;;;23.43;73.76
16355;BME280;8287;51.644;8.494;2023-09-08T07:31:35;100624.16;;;23.63;73.40
16355;BME280;8287;51.644;8.494;2023-09-08T07:34:01;100625.75;;;23.82;73.04
16355;BME280;8287;51.644;8.494;2023-09-08T07:36:28;100630.44;;;23.99;73.09
16355;BME280;8287;51.644;8.494;2023-09-08T07:38:54;100629.28;;;24.07;73.63
16355;BME280;8287;51.644;8.494;2023-09-08T07:41:21;100628.09;;;24.21;72.71
16355;BME280;8287;51.644;8.494;2023-09-08T07:43:50;100630.41;;;24.33;73.39
16355;BME280;8287;51.644;8.494;2023-09-08T07:46:16;100636.59;;;24.48;71.93
16355;BME280;8287;51.644;8.494;2023-09-08T07:48:43;100629.63;;;24.47;71.80
16355;BME280;8287;51.644;8.494;2023-09-08T07:51:09;100630.38;;;24.65;71.99
16355;BME280;8287;51.644;8.494;2023-09-08T07:53:36;100625.34;;;24.67;73.24
16355;BME280;8287;51.644;8.494;2023-09-08T07:56:03;100627.66;;;24.79;72.34
16355;BME280;8287;51.644;8.494;2023-09-08T07:58:30;100621.81;;;24.87;71.83
16355;BME280;8287;51.644;8.494;2023-09-08T08:00:58;100618.28;;;24.97;70.76
16355;BME280;8287;51.644;8.494;2023-09-08T08:03:25;100624.09;;;25.03;70.69
16355;BME280;8287;51.644;8.494;2023-09-08T08:05:51;100624.06;;;25.06;68.71
16355;BME280;8287;51.644;8.494;2023-09-08T08:08:18;100625.56;;;25.25;70.19
16355;BME280;8287;51.644;8.494;2023-09-08T08:10:45;100627.09;;;25.26;68.61
16355;BME280;8287;51.644;8.494;2023-09-08T08:13:11;100621.97;;;25.42;69.63
16355;BME280;8287;51.644;8.494;2023-09-08T08:15:39;100625.09;;;25.40;68.07
16355;BME280;8287;51.644;8.494;2023-09-08T08:18:07;100623.81;;;25.59;68.10
16355;BME280;8287;51.644;8.494;2023-09-08T08:20:36;100633.94;;;25.55;66.66
16355;BME280;8287;51.644;8.494;2023-09-08T08:23:03;100634.50;;;25.87;64.85
16355;BME280;8287;51.644;8.494;2023-09-08T08:25:29;100634.47;;;25.94;67.88
16355;BME280;8287;51.644;8.494;2023-09-08T08:27:57;100635.94;;;26.02;68.08
16355;BME280;8287;51.644;8.494;2023-09-08T08:30:23;100634.03;;;25.99;65.30
16355;BME280;8287;51.644;8.494;2023-09-08T08:32:50;100637.09;;;26.04;65.48
16355;BME280;8287;51.644;8.494;2023-09-08T08:35:20;100631.97;;;26.13;65.38
16355;BME280;8287;51.644;8.494;2023-09-08T08:37:46;100627.16;;;26.31;65.66
16355;BME280;8287;51.644;8.494;2023-09-08T08:40:13;100634.31;;;26.15;62.51
16355;BME280;8287;51.644;8.494;2023-09-08T08:42:40;100616.38;;;26.24;62.58
16355;BME280;8287;51.644;8.494;2023-09-08T08:45:07;100616.22;;;26.38;63.95
16355;BME280;8287;51.644;8.494;2023-09-08T08:47:34;100609.84;;;26.59;64.06
16355;BME280;8287;51.644;8.494;2023-09-08T08:50:01;100616.25;;;26.79;62.38
16355;BME280;8287;51.644;8.494;2023-09-08T08:52:31;100609.91;;;26.89;62.44
16355;BME280;8287;51.644;8.494;2023-09-08T08:54:57;100613.41;;;26.86;60.97
16355;BME280;8287;51.644;8.494;2023-09-08T08:57:24;100606.34;;;26.92;60.98
16355;BME280;8287;51.644;8.494;2023-09-08T08:59:53;100620.81;;;27.19;62.88
16355;BME280;8287;51.644;8.494;2023-09-08T09:02:19;100619.28;;;27.18;60.81
16355;BME280;8287;51.644;8.494;2023-09-08T09:04:47;100618.09;;;27.19;61.21
16355;BME280;8287;51.644;8.494;2023-09-08T09:07:14;100612.22;;;27.24;59.79
16355;BME280;8287;51.644;8.494;2023-09-08T09:09:42;100610.75;;;27.46;59.77
16355;BME280;8287;51.644;8.494;2023-09-08T09:12:09;100615.97;;;27.60;61.66
16355;BME280;8287;51.644;8.494;2023-09-08T09:14:35;100607.09;;;27.82;61.69
16355;BME280;8287;51.644;8.494;2023-09-08T09:17:02;100612.03;;;27.91;60.52
16355;BME280;8287;51.644;8.494;2023-09-08T09:19:31;100609.19;;;27.98;60.00
16355;BME280;8287;51.644;8.494;2023-09-08T09:21:59;100607.59;;;27.74;58.27
16355;BME280;8287;51.644;8.494;2023-09-08T09:24:30;100601.44;;;27.96;59.06
16355;BME280;8287;51.644;8.494;2023-09-08T09:26:59;100602.03;;;27.84;56.90
16355;BME280;8287;51.644;8.494;2023-09-08T09:29:26;100606.75;;;28.03;60.23
16355;BME280;8287;51.644;8.494;2023-09-08T09:31:54;100599.16;;;28.14;59.16
16355;BME280;8287;51.644;8.494;2023-09-08T09:34:22;100603.88;;;28.13;60.16
16355;BME280;8287;51.644;8.494;2023-09-08T09:36:49;100603.75;;;28.20;61.59
16355;BME280;8287;51.644;8.494;2023-09-08T09:39:17;100594.97;;;28.32;60.39
16355;BME280;8287;51.644;8.494;2023-09-08T09:41:44;100590.25;;;28.56;57.06
16355;BME280;8287;51.644;8.494;2023-09-08T09:44:13;100593.47;;;28.51;54.99
16355;BME280;8287;51.644;8.494;2023-09-08T09:46:43;100588.22;;;28.40;57.54
16355;BME280;8287;51.644;8.494;2023-09-08T09:49:14;100593.88;;;28.49;56.59
16355;BME280;8287;51.644;8.494;2023-09-08T09:51:44;100589.97;;;28.50;57.04
16355;BME280;8287;51.644;8.494;2023-09-08T09:54:11;100590.09;;;28.43;57.15
16355;BME280;8287;51.644;8.494;2023-09-08T09:56:38;100586.06;;;28.71;58.54
16355;BME280;8287;51.644;8.494;2023-09-08T09:59:07;100595.44;;;28.89;58.29
16355;BME280;8287;51.644;8.494;2023-09-08T10:01:37;100588.75;;;28.94;59.63
16355;BME280;8287;51.644;8.494;2023-09-08T10:04:04;100589.22;;;29.08;58.14
16355;BME280;8287;51.644;8.494;2023-09-08T10:06:31;100581.59;;;29.35;54.40
16355;BME280;8287;51.644;8.494;2023-09-08T10:08:59;100581.16;;;29.56;53.26
16355;BME280;8287;51.644;8.494;2023-09-08T10:11:29;100581.16;;;29.72;52.53
16355;BME280;8287;51.644;8.494;2023-09-08T10:13:58;100577.78;;;29.49;53.60
16355;BME280;8287;51.644;8.494;2023-09-08T10:16:26;100575.38;;;29.35;53.76
16355;BME280;8287;51.644;8.494;2023-09-08T10:18:57;100578.97;;;29.48;52.97
16355;BME280;8287;51.644;8.494;2023-09-08T10:21:26;100583.69;;;29.47;52.79
16355;BME280;8287;51.644;8.494;2023-09-08T10:23:57;100570.31;;;29.69;52.88
16355;BME280;8287;51.644;8.494;2023-09-08T10:26:27;100571.59;;;29.80;52.19
16355;BME280;8287;51.644;8.494;2023-09-08T10:28:54;100556.56;;;29.56;51.53
16355;BME280;8287;51.644;8.494;2023-09-08T10:31:23;100565.03;;;29.62;51.34
16355;BME280;8287;51.644;8.494;2023-09-08T10:33:54;100563.66;;;29.70;53.77
16355;BME280;8287;51.644;8.494;2023-09-08T10:36:22;100556.88;;;29.42;51.17
16355;BME280;8287;51.644;8.494;2023-09-08T10:38:49;100560.31;;;29.62;51.06
16355;BME280;8287;51.644;8.494;2023-09-08T10:41:27;100557.66;;;29.75;51.95
16355;BME280;8287;51.644;8.494;2023-09-08T10:44:00;100555.88;;;29.84;50.33
16355;BME280;8287;51.644;8.494;2023-09-08T10:46:28;100550.16;;;29.95;51.77
16355;BME280;8287;51.644;8.494;2023-09-08T10:49:01;100551.78;;;30.08;51.37
16355;BME280;8287;51.644;8.494;2023-09-08T10:51:29;100559.00;;;30.15;46.84
16355;BME280;8287;51.644;8.494;2023-09-08T10:53:55;100556.53;;;30.04;47.56
16355;BME280;8287;51.644;8.494;2023-09-08T10:56:27;100551.34;;;30.38;48.01
16355;BME280;8287;51.644;8.494;2023-09-08T10:58:54;100550.13;;;30.55;46.38
16355;BME280;8287;51.644;8.494;2023-09-08T11:01:21;100551.16;;;30.74;47.12
16355;BME280;8287;51.644;8.494;2023-09-08T11:03:52;100545.75;;;31.11;45.65
16355;BME280;8287;51.644;8.494;2023-09-08T11:06:21;100548.72;;;31.29;43.13
16355;BME280;8287;51.644;8.494;2023-09-08T11:08:49;100554.97;;;31.17;44.20
16355;BME280;8287;51.644;8.494;2023-09-08T11:11:18;100548.78;;;31.01;45.42
16355;BME280;8287;51.644;8.494;2023-09-08T11:13:45;100547.34;;;30.96;44.23
16355;BME280;8287;51.644;8.494;2023-09-08T11:16:13;100555.84;;;31.14;46.13
16355;BME280;8287;51.644;8.494;2023-09-08T11:18:40;100549.88;;;31.03;45.82
16355;BME280;8287;51.644;8.494;2023-09-08T11:21:08;100552.66;;;31.28;46.85
16355;BME280;8287;51.644;8.494;2023-09-08T11:23:37;100546.53;;;31.49;46.74
16355;BME280;8287;51.644;8.494;2023-09-08T11:26:04;100544.00;;;31.67;44.98
16355;BME280;8287;51.644;8.494;2023-09-08T11:28:34;100537.63;;;31.70;44.29
16355;BME280;8287;51.644;8.494;2023-09-08T11:31:01;100539.72;;;31.04;46.46
16355;BME280;8287;51.644;8.494;2023-09-08T11:33:33;100538.31;;;31.12;46.45
16355;BME280;8287;51.644;8.494;2023-09-08T11:36:00;100542.47;;;31.54;46.52
16355;BME280;8287;51.644;8.494;2023-09-08T11:38:27;100540.59;;;31.38;44.92
16355;BME280;8287;51.644;8.494;2023-09-08T11:40:57;100540.84;;;31.31;47.36
16355;BME280;8287;51.644;8.494;2023-09-08T11:43:24;100538.72;;;31.60;48.38
16355;BME280;8287;51.644;8.494;2023-09-08T11:45:51;100537.09;;;32.22;44.71
16355;BME280;8287;51.644;8.494;2023-09-08T11:48:19;100527.19;;;31.90;43.87
16355;BME280;8287;51.644;8.494;2023-09-08T11:50:45;100531.75;;;32.06;47.30
16355;BME280;8287;51.644;8.494;2023-09-08T11:53:12;100526.88;;;32.43;44.86
16355;BME280;8287;51.644;8.494;2023-09-08T11:55:38;100528.59;;;32.28;44.95
16355;BME280;8287;51.644;8.494;2023-09-08T11:58:06;100520.66;;;31.75;44.90
16355;BME280;8287;51.644;8.494;2023-09-08T12:00:34;100528.03;;;32.00;46.64
16355;BME280;8287;51.644;8.494;2023-09-08T12:03:10;100521.81;;;32.85;44.44
16355;BME280;8287;51.644;8.494;2023-09-08T12:05:37;100518.16;;;32.88;44.19
16355;BME280;8287;51.644;8.494;2023-09-08T12:08:05;100520.63;;;33.25;43.28
16355;BME280;8287;51.644;8.494;2023-09-08T12:10:37;100515.38;;;32.79;43.64
16355;BME280;8287;51.644;8.494;2023-09-08T12:13:04;100520.47;;;32.89;43.41
16355;BME280;8287;51.644;8.494;2023-09-08T12:15:33;100519.41;;;32.96;43.85
16355;BME280;8287;51.644;8.494;2023-09-08T12:18:00;100517.69;;;33.20;43.50
16355;BME280;8287;51.644;8.494;2023-09-08T12:20:28;100506.84;;;32.77;43.65
16355;BME280;8287;51.644;8.494;2023-09-08T12:22:58;100506.44;;;32.66;41.21
16355;BME280;8287;51.644;8.494;2023-09-08T12:25:25;100506.19;;;33.03;44.51
16355;BME280;8287;51.644;8.494;2023-09-08T12:27:53;100508.09;;;33.82;42.68
16355;BME280;8287;51.644;8.494;2023-09-08T12:30:22;100507.03;;;34.42;41.18
16355;BME280;8287;51.644;8.494;2023-09-08T12:32:57;100511.28;;;33.23;40.37
16355;BME280;8287;51.644;8.494;2023-09-08T12:35:25;100494.56;;;33.30;39.58
16355;BME280;8287;51.644;8.494;2023-09-08T12:38:02;100504.75;;;32.68;39.39
16355;BME280;8287;51.644;8.494;2023-09-08T12:40:30;100497.53;;;33.14;38.98
16355;BME280;8287;51.644;8.494;2023-09-08T12:42:57;100494.94;;;33.59;38.61
16355;BME280;8287;51.644;8.494;2023-09-08T12:45:26;100500.84;;;33.39;38.62
16355;BME280;8287;51.644;8.494;2023-09-08T12:47:52;100500.09;;;33.48;42.13
16355;BME280;8287;51.644;8.494;2023-09-08T12:50:21;100494.66;;;34.38;39.96
16355;BME280;8287;51.644;8.494;2023-09-08T12:52:48;100494.66;;;34.38;39.09
16355;BME280;8287;51.644;8.494;2023-09-08T12:55:14;100488.09;;;34.08;36.94
16355;BME280;8287;51.644;8.494;2023-09-08T12:57:41;100484.13;;;34.27;39.28
16355;BME280;8287;51.644;8.494;2023-09-08T13:00:08;100486.34;;;34.65;38.24
16355;BME280;8287;51.644;8.494;2023-09-08T13:02:35;100477.50;;;34.52;37.63